createdAt,value
2022-10-03T00:02:03.709Z,8.04
2022-10-03T00:04:44.762Z,8.00
2022-10-03T00:07:23.889Z,7.93
2022-10-03T00:10:03.413Z,8.01
2022-10-03T00:12:50.737Z,7.97
2022-10-03T00:15:22.358Z,7.81
2022-10-03T00:18:01.920Z,7.86
2022-10-03T00:20:44.972Z,7.80
2022-10-03T00:23:18.405Z,7.69
2022-10-03T00:25:54.885Z,7.45
2022-10-03T00:28:42.502Z,7.63
2022-10-03T00:31:13.322Z,7.76
2022-10-03T00:33:53.527Z,7.75
2022-10-03T00:36:30.845Z,7.70
2022-10-03T00:39:22.322Z,7.64
2022-10-03T00:42:13.112Z,7.50
2022-10-03T00:44:57.249Z,7.57
2022-10-03T00:47:54.332Z,7.61
2022-10-03T00:50:41.901Z,7.57
2022-10-03T00:53:35.179Z,7.45
2022-10-03T00:56:15.129Z,7.45
2022-10-03T00:58:59.708Z,7.37
2022-10-03T01:01:37.001Z,7.50
2022-10-03T01:04:17.067Z,7.45
2022-10-03T01:06:47.388Z,7.30
2022-10-03T01:09:25.384Z,7.28
2022-10-03T01:12:13.471Z,7.20
2022-10-03T01:14:55.888Z,7.06
2022-10-03T01:17:31.365Z,6.99
2022-10-03T01:20:08.665Z,7.18
2022-10-03T01:23:12.547Z,7.26
2022-10-03T01:25:46.813Z,7.13
2022-10-03T01:28:46.021Z,7.22
2022-10-03T01:31:17.609Z,7.05
2022-10-03T01:33:50.848Z,7.05
2022-10-03T01:36:28.673Z,7.09
2022-10-03T01:38:59.965Z,7.23
2022-10-03T01:41:34.909Z,7.23
2022-10-03T01:44:13.223Z,7.15
2022-10-03T01:46:46.667Z,7.01
2022-10-03T01:49:23.085Z,7.11
2022-10-03T01:51:59.828Z,7.03
2022-10-03T01:54:36.174Z,7.16
2022-10-03T01:57:12.967Z,7.17
2022-10-03T01:59:47.281Z,7.05
2022-10-03T02:02:22.274Z,7.03
2022-10-03T02:04:59.364Z,7.14
2022-10-03T02:07:34.563Z,7.06
2022-10-03T02:10:12.277Z,7.12
2022-10-03T02:12:46.539Z,7.12
2022-10-03T02:15:21.011Z,7.10
2022-10-03T02:17:54.916Z,6.99
2022-10-03T02:20:34.360Z,7.16
2022-10-03T02:23:01.938Z,7.13
2022-10-03T02:25:51.431Z,7.15
2022-10-03T02:28:33.562Z,6.96
2022-10-03T02:31:25.364Z,6.98
2022-10-03T02:34:17.151Z,7.13
2022-10-03T02:37:11.628Z,6.99
2022-10-03T02:40:16.568Z,7.18
2022-10-03T02:43:25.264Z,7.26
2022-10-03T02:46:19.068Z,7.19
2022-10-03T02:49:18.409Z,7.30
2022-10-03T02:52:25.034Z,7.13
2022-10-03T02:55:14.379Z,7.20
2022-10-03T02:58:07.175Z,7.31
2022-10-03T03:00:52.385Z,7.29
2022-10-03T03:03:44.217Z,7.35
2022-10-03T03:06:19.470Z,7.35
2022-10-03T03:09:36.593Z,7.36
2022-10-03T03:12:20.915Z,7.23
2022-10-03T03:15:24.998Z,7.43
2022-10-03T03:17:59.124Z,7.49
2022-10-03T03:20:54.237Z,7.48
2022-10-03T03:23:48.704Z,7.51
2022-10-03T03:26:31.570Z,7.55
2022-10-03T03:29:08.594Z,7.58
2022-10-03T03:31:44.684Z,7.31
2022-10-03T03:34:20.706Z,7.53
2022-10-03T03:36:55.558Z,7.47
2022-10-03T03:39:47.759Z,6.98
2022-10-03T03:42:31.836Z,7.57
2022-10-03T03:45:34.750Z,7.60
2022-10-03T03:48:23.717Z,7.52
2022-10-03T03:51:10.133Z,7.52
2022-10-03T03:54:00.483Z,7.53
2022-10-03T03:56:43.471Z,7.49
2022-10-03T03:59:20.347Z,7.21
2022-10-03T04:02:02.586Z,7.43
2022-10-03T04:04:45.332Z,7.39
2022-10-03T04:07:24.787Z,7.36
2022-10-03T04:10:12.527Z,7.35
2022-10-03T04:12:56.611Z,7.29
2022-10-03T04:15:37.522Z,7.22
2022-10-03T04:18:32.006Z,7.16
2022-10-03T04:21:21.238Z,7.21
2022-10-03T04:24:03.417Z,7.10
2022-10-03T04:26:46.410Z,7.17
2022-10-03T04:29:56.604Z,7.15
2022-10-03T04:32:45.285Z,6.87
2022-10-03T04:35:32.622Z,7.15
2022-10-03T04:38:10.928Z,7.04
2022-10-03T04:40:49.631Z,7.14
2022-10-03T04:43:28.844Z,7.13
2022-10-03T04:46:10.401Z,7.15
2022-10-03T04:48:43.354Z,7.17
2022-10-03T04:51:20.667Z,7.08
2022-10-03T04:53:54.915Z,7.12
2022-10-03T04:56:40.461Z,7.04
2022-10-03T04:59:26.235Z,7.10
2022-10-03T05:01:56.291Z,7.11
2022-10-03T05:04:30.204Z,7.15
2022-10-03T05:07:06.057Z,7.16
2022-10-03T05:09:43.102Z,7.18
2022-10-03T05:12:16.285Z,7.19
2022-10-03T05:15:01.419Z,7.20
2022-10-03T05:17:40.978Z,7.18
2022-10-03T05:20:24.109Z,7.08
2022-10-03T05:22:58.723Z,7.19
2022-10-03T05:25:34.143Z,7.15
2022-10-03T05:28:12.503Z,7.16
2022-10-03T05:30:50.538Z,7.17
2022-10-03T05:33:26.354Z,7.13
2022-10-03T05:36:08.332Z,7.10
2022-10-03T05:38:59.597Z,7.09
2022-10-03T05:41:30.407Z,7.07
2022-10-03T05:44:04.289Z,7.08
2022-10-03T05:46:56.148Z,7.19
2022-10-03T05:49:58.829Z,7.22
2022-10-03T05:52:44.988Z,7.08
2022-10-03T05:55:28.743Z,7.29
2022-10-03T05:58:20.486Z,7.14
2022-10-03T06:01:19.936Z,7.31
2022-10-03T06:04:06.320Z,7.39
2022-10-03T06:06:50.995Z,6.44
2022-10-03T06:09:42.310Z,7.41
2022-10-03T06:12:11.609Z,7.46
2022-10-03T06:15:11.651Z,7.50
2022-10-03T06:18:17.594Z,7.54
2022-10-03T06:21:20.437Z,7.63
2022-10-03T06:24:25.139Z,7.68
2022-10-03T06:27:17.715Z,7.71
2022-10-03T06:30:10.784Z,7.79
2022-10-03T06:33:19.181Z,7.73
2022-10-03T06:36:21.540Z,7.88
2022-10-03T06:39:24.464Z,7.96
2022-10-03T06:42:29.170Z,7.97
2022-10-03T06:45:41.923Z,8.08
2022-10-03T06:48:57.540Z,8.11
2022-10-03T06:51:46.702Z,8.16
2022-10-03T06:55:09.368Z,8.23
2022-10-03T06:57:50.783Z,8.25
2022-10-03T07:00:20.337Z,8.20
2022-10-03T07:03:12.798Z,8.44
2022-10-03T07:06:15.116Z,8.49
2022-10-03T07:09:11.414Z,8.58
2022-10-03T07:12:06.986Z,8.63
2022-10-03T07:15:08.735Z,8.68
2022-10-03T07:17:53.484Z,8.76
2022-10-03T07:21:02.864Z,8.84
2022-10-03T07:24:01.208Z,8.97
2022-10-03T07:27:00.498Z,9.07
2022-10-03T07:29:53.487Z,9.19
2022-10-03T07:32:36.949Z,9.27
2022-10-03T07:35:34.659Z,9.20
2022-10-03T07:38:26.939Z,9.36
2022-10-03T07:41:20.138Z,9.59
2022-10-03T07:44:18.389Z,9.68
2022-10-03T07:47:07.189Z,9.78
2022-10-03T07:49:55.297Z,9.88
2022-10-03T07:52:50.360Z,10.00
2022-10-03T07:55:27.760Z,9.96
2022-10-03T07:58:17.590Z,10.26
2022-10-03T08:01:06.170Z,10.42
2022-10-03T08:04:12.676Z,10.55
2022-10-03T08:06:42.420Z,10.48
2022-10-03T08:09:38.122Z,10.82
2022-10-03T08:12:38.258Z,11.00
2022-10-03T08:15:11.206Z,11.17
2022-10-03T08:18:12.459Z,11.33
2022-10-03T08:20:49.536Z,11.40
2022-10-03T08:23:58.887Z,11.63
2022-10-03T08:26:41.444Z,11.81
2022-10-03T08:29:42.497Z,11.81
2022-10-03T08:32:53.215Z,12.09
2022-10-03T08:35:42.609Z,12.19
2022-10-03T08:38:40.295Z,12.41
2022-10-03T08:41:49.402Z,12.55
2022-10-03T08:44:43.058Z,12.66
2022-10-03T08:47:26.313Z,12.85
2022-10-03T08:50:31.235Z,12.98
2022-10-03T08:53:30.411Z,12.90
2022-10-03T08:56:05.367Z,12.91
2022-10-03T08:59:08.041Z,13.23
2022-10-03T09:01:56.553Z,13.26
2022-10-03T09:04:58.035Z,13.53
2022-10-03T09:07:50.023Z,13.71
2022-10-03T09:10:40.153Z,14.01
2022-10-03T09:13:48.335Z,14.25
2022-10-03T09:16:41.965Z,14.21
2022-10-03T09:19:58.260Z,14.32
2022-10-03T09:22:52.940Z,14.42
2022-10-03T09:25:24.364Z,14.57
2022-10-03T09:28:35.243Z,14.71
2022-10-03T09:31:27.972Z,14.94
2022-10-03T09:34:37.754Z,14.87
2022-10-03T09:37:28.632Z,15.13
2022-10-03T09:40:43.760Z,15.16
2022-10-03T09:43:46.247Z,15.25
2022-10-03T09:46:46.336Z,15.43
2022-10-03T09:49:40.407Z,15.46
2022-10-03T09:52:23.952Z,15.32
2022-10-03T09:55:14.699Z,15.32
2022-10-03T09:58:13.804Z,15.39
2022-10-03T10:01:04.038Z,15.56
2022-10-03T10:04:08.068Z,15.68
2022-10-03T10:07:19.236Z,15.77
2022-10-03T10:10:20.614Z,16.02
2022-10-03T10:13:27.190Z,16.29
2022-10-03T10:16:17.825Z,16.38
2022-10-03T10:19:28.894Z,16.62
2022-10-03T10:22:32.499Z,16.66
2022-10-03T10:25:29.456Z,16.78
2022-10-03T10:28:29.918Z,16.88
2022-10-03T10:31:38.941Z,16.93
2022-10-03T10:34:44.727Z,16.98
2022-10-03T10:38:01.857Z,16.94
2022-10-03T10:41:05.478Z,16.96
2022-10-03T10:44:19.672Z,16.74
2022-10-03T10:47:20.827Z,16.95
2022-10-03T10:50:28.637Z,17.46
2022-10-03T10:53:32.378Z,17.66
2022-10-03T10:56:33.947Z,17.55
2022-10-03T10:59:33.892Z,17.44
2022-10-03T11:02:47.915Z,17.13
2022-10-03T11:06:05.201Z,16.89
2022-10-03T11:09:20.740Z,16.92
2022-10-03T11:12:47.602Z,17.12
2022-10-03T11:15:47.185Z,17.19
2022-10-03T11:18:47.437Z,17.46
2022-10-03T11:21:42.142Z,17.61
2022-10-03T11:24:47.247Z,17.69
2022-10-03T11:27:58.188Z,17.71
2022-10-03T11:30:54.170Z,17.95
2022-10-03T11:34:02.691Z,18.05
2022-10-03T11:36:55.499Z,18.15
2022-10-03T11:39:32.139Z,18.26
2022-10-03T11:42:10.633Z,18.38
2022-10-03T11:44:44.363Z,18.36
2022-10-03T11:47:31.803Z,18.47
2022-10-03T11:50:27.655Z,18.34
2022-10-03T11:53:14.457Z,18.19
2022-10-03T11:55:45.281Z,18.29
2022-10-03T11:58:47.978Z,18.25
2022-10-03T12:01:35.168Z,18.27
2022-10-03T12:04:11.496Z,18.11
2022-10-03T12:06:59.472Z,18.17
2022-10-03T12:09:37.327Z,18.15
2022-10-03T12:12:11.691Z,18.07
2022-10-03T12:14:43.076Z,18.33
2022-10-03T12:17:14.493Z,18.39
2022-10-03T12:19:54.301Z,18.39
2022-10-03T12:22:36.143Z,18.26
2022-10-03T12:25:16.452Z,18.29
2022-10-03T12:27:50.585Z,18.22
2022-10-03T12:30:19.793Z,18.39
2022-10-03T12:33:06.798Z,18.32
2022-10-03T12:35:43.722Z,18.33
2022-10-03T12:38:23.279Z,18.47
2022-10-03T12:40:59.115Z,18.64
2022-10-03T12:43:38.766Z,18.85
2022-10-03T12:46:13.466Z,18.96
2022-10-03T12:48:49.048Z,19.03
2022-10-03T12:51:28.342Z,19.02
2022-10-03T12:54:07.621Z,18.98
2022-10-03T12:56:43.930Z,19.01
2022-10-03T12:59:17.861Z,19.05
2022-10-03T13:02:03.906Z,19.06
2022-10-03T13:04:42.261Z,19.22
2022-10-03T13:07:23.246Z,19.61
2022-10-03T13:10:24.441Z,19.98
2022-10-03T13:12:56.633Z,20.11
2022-10-03T13:15:54.861Z,20.41
2022-10-03T13:18:37.514Z,20.64
2022-10-03T13:21:44.996Z,20.37
2022-10-03T13:24:04.267Z,20.32
2022-10-03T13:26:44.827Z,20.34
2022-10-03T13:29:28.349Z,20.34
2022-10-03T13:32:06.629Z,20.28
2022-10-03T13:34:41.311Z,20.25
2022-10-03T13:37:16.059Z,20.07
2022-10-03T13:39:48.201Z,19.91
2022-10-03T13:42:20.463Z,19.93
2022-10-03T13:44:51.247Z,19.63
2022-10-03T13:47:43.383Z,19.52
2022-10-03T13:50:16.957Z,19.53
2022-10-03T13:52:50.653Z,19.46
2022-10-03T13:55:29.584Z,19.20
2022-10-03T13:58:34.366Z,19.25
2022-10-03T14:01:29.852Z,19.15
2022-10-03T14:04:15.767Z,19.32
2022-10-03T14:06:47.740Z,19.38
2022-10-03T14:09:28.913Z,19.38
2022-10-03T14:12:06.891Z,19.10
2022-10-03T14:14:53.523Z,18.91
2022-10-03T14:17:28.170Z,18.69
2022-10-03T14:20:11.686Z,18.24
2022-10-03T14:22:50.733Z,18.31
2022-10-03T14:25:25.769Z,18.29
2022-10-03T14:27:55.417Z,18.27
2022-10-03T14:30:24.705Z,18.34
2022-10-03T14:33:03.133Z,18.36
2022-10-03T14:35:45.595Z,18.39
2022-10-03T14:38:34.007Z,18.30
2022-10-03T14:41:05.663Z,18.36
2022-10-03T14:43:38.499Z,18.25
2022-10-03T14:46:06.555Z,18.01
2022-10-03T14:48:38.051Z,18.10
2022-10-03T14:51:09.386Z,17.95
2022-10-03T14:53:37.657Z,17.90
2022-10-03T14:56:09.490Z,17.87
2022-10-03T14:58:44.039Z,17.80
2022-10-03T15:01:14.883Z,17.78
2022-10-03T15:03:52.089Z,17.83
2022-10-03T15:06:49.517Z,17.89
2022-10-03T15:09:21.385Z,17.80
2022-10-03T15:11:54.651Z,17.96
2022-10-03T15:14:22.232Z,17.91
2022-10-03T15:16:53.313Z,17.77
2022-10-03T15:19:25.492Z,17.90
2022-10-03T15:21:53.408Z,17.70
2022-10-03T15:24:25.507Z,17.76
2022-10-03T15:27:02.735Z,17.64
2022-10-03T15:29:31.055Z,17.47
2022-10-03T15:31:58.752Z,17.60
2022-10-03T15:34:30.808Z,17.47
2022-10-03T15:37:00.317Z,17.52
2022-10-03T15:39:30.778Z,17.42
2022-10-03T15:42:15.161Z,17.47
2022-10-03T15:44:51.629Z,17.36
2022-10-03T15:47:21.313Z,17.38
2022-10-03T15:49:53.574Z,17.26
2022-10-03T15:52:23.178Z,17.15
2022-10-03T15:55:03.166Z,17.03
2022-10-03T15:57:44.857Z,17.03
2022-10-03T16:00:20.986Z,16.92
2022-10-03T16:02:52.285Z,16.83
2022-10-03T16:05:22.293Z,16.65
2022-10-03T16:07:57.566Z,16.75
2022-10-03T16:10:27.413Z,16.67
2022-10-03T16:13:05.889Z,16.61
2022-10-03T16:15:47.288Z,16.46
2022-10-03T16:18:52.844Z,16.36
2022-10-03T16:21:30.137Z,16.32
2022-10-03T16:24:01.007Z,16.26
2022-10-03T16:26:30.276Z,16.07
2022-10-03T16:29:06.793Z,16.10
2022-10-03T16:31:40.217Z,15.87
2022-10-03T16:34:14.383Z,15.82
2022-10-03T16:36:44.317Z,15.73
2022-10-03T16:39:19.341Z,15.64
2022-10-03T16:41:46.470Z,15.55
2022-10-03T16:44:22.868Z,15.44
2022-10-03T16:46:52.287Z,15.32
2022-10-03T16:49:35.210Z,15.10
2022-10-03T16:52:04.569Z,15.15
2022-10-03T16:54:31.664Z,15.03
2022-10-03T16:57:00.791Z,14.93
2022-10-03T16:59:30.781Z,14.78
2022-10-03T17:02:03.305Z,14.67
2022-10-03T17:04:33.058Z,14.66
2022-10-03T17:07:01.920Z,14.56
2022-10-03T17:09:36.722Z,14.45
2022-10-03T17:12:06.386Z,14.33
2022-10-03T17:14:39.079Z,14.23
2022-10-03T17:17:16.167Z,14.13
2022-10-03T17:19:45.922Z,14.03
2022-10-03T17:22:19.738Z,13.92
2022-10-03T17:24:51.523Z,13.81
2022-10-03T17:27:24.115Z,13.72
2022-10-03T17:29:58.603Z,13.60
2022-10-03T17:32:30.380Z,13.52
2022-10-03T17:35:00.764Z,13.45
2022-10-03T17:37:46.566Z,13.34
2022-10-03T17:40:21.919Z,13.04
2022-10-03T17:42:54.068Z,13.14
2022-10-03T17:45:43.846Z,12.92
2022-10-03T17:48:16.540Z,12.95
2022-10-03T17:50:57.283Z,12.80
2022-10-03T17:53:28.796Z,12.62
2022-10-03T17:55:59.760Z,12.73
2022-10-03T17:58:29.297Z,12.67
2022-10-03T18:01:06.103Z,12.64
2022-10-03T18:03:38.982Z,12.48
2022-10-03T18:06:39.104Z,12.42
2022-10-03T18:09:18.720Z,12.26
2022-10-03T18:11:48.531Z,12.17
2022-10-03T18:14:27.898Z,12.17
2022-10-03T18:17:04.963Z,12.18
2022-10-03T18:19:48.777Z,12.09
2022-10-03T18:22:19.717Z,12.01
2022-10-03T18:24:54.157Z,11.90
2022-10-03T18:27:57.977Z,11.79
2022-10-03T18:30:33.938Z,11.73
2022-10-03T18:33:05.910Z,11.54
2022-10-03T18:35:36.210Z,11.66
2022-10-03T18:38:11.905Z,11.43
2022-10-03T18:40:42.548Z,11.47
2022-10-03T18:43:26.673Z,11.39
2022-10-03T18:45:59.577Z,11.33
2022-10-03T18:48:34.003Z,11.27
2022-10-03T18:51:10.161Z,11.24
2022-10-03T18:53:39.376Z,11.14
2022-10-03T18:56:09.650Z,11.06
2022-10-03T18:58:39.206Z,10.99
2022-10-03T19:01:11.765Z,10.88
2022-10-03T19:03:46.661Z,10.87
2022-10-03T19:06:19.862Z,10.84
2022-10-03T19:08:50.077Z,10.77
2022-10-03T19:11:22.104Z,10.69
2022-10-03T19:14:00.530Z,10.63
2022-10-03T19:17:01.406Z,10.57
2022-10-03T19:19:44.779Z,10.43
2022-10-03T19:22:15.890Z,10.51
2022-10-03T19:24:58.269Z,10.41
2022-10-03T19:27:39.242Z,10.34
2022-10-03T19:30:07.356Z,10.32
2022-10-03T19:32:48.715Z,10.32
2022-10-03T19:35:21.010Z,10.26
2022-10-03T19:37:51.091Z,10.24
2022-10-03T19:40:44.541Z,10.17
2022-10-03T19:43:39.813Z,10.11
2022-10-03T19:46:15.818Z,10.09
2022-10-03T19:48:47.637Z,10.06
2022-10-03T19:51:22.633Z,9.99
2022-10-03T19:53:52.383Z,9.88
2022-10-03T19:56:21.267Z,9.91
2022-10-03T19:59:05.021Z,9.89
2022-10-03T20:01:42.312Z,9.90
2022-10-03T20:04:10.239Z,9.90
2022-10-03T20:06:42.389Z,9.87
2022-10-03T20:09:21.899Z,9.79
2022-10-03T20:11:52.185Z,9.51
2022-10-03T20:14:20.864Z,9.52
2022-10-03T20:16:48.912Z,9.68
2022-10-03T20:19:21.598Z,9.56
2022-10-03T20:21:52.921Z,9.53
2022-10-03T20:24:29.281Z,9.64
2022-10-03T20:27:19.955Z,9.61
2022-10-03T20:29:54.237Z,9.59
2022-10-03T20:32:20.949Z,9.56
2022-10-03T20:34:52.191Z,9.44
2022-10-03T20:37:38.444Z,9.43
2022-10-03T20:40:20.954Z,9.35
2022-10-03T20:42:50.415Z,9.23
2022-10-03T20:45:22.878Z,9.11
2022-10-03T20:47:59.502Z,9.16
2022-10-03T20:50:31.515Z,9.23
2022-10-03T20:53:01.987Z,9.19
2022-10-03T20:55:32.349Z,9.15
2022-10-03T20:58:09.958Z,9.00
2022-10-03T21:00:43.523Z,9.03
2022-10-03T21:03:21.546Z,9.02
2022-10-03T21:05:51.051Z,8.99
2022-10-03T21:08:23.852Z,8.90
2022-10-03T21:10:54.785Z,8.75
2022-10-03T21:13:24.083Z,8.80
2022-10-03T21:15:52.144Z,8.75
2022-10-03T21:18:21.459Z,8.74
2022-10-03T21:20:58.650Z,8.69
2022-10-03T21:23:28.123Z,8.62
2022-10-03T21:25:56.889Z,8.58
2022-10-03T21:28:27.313Z,8.44
2022-10-03T21:31:22.491Z,7.75
2022-10-03T21:33:58.602Z,8.46
2022-10-03T21:36:30.834Z,8.39
2022-10-03T21:39:11.821Z,8.27
2022-10-03T21:41:46.626Z,8.29
2022-10-03T21:44:33.600Z,8.28
2022-10-03T21:47:09.220Z,8.24
2022-10-03T21:49:48.615Z,8.04
2022-10-03T21:52:53.920Z,8.12
2022-10-03T21:55:51.684Z,7.97
2022-10-03T21:58:32.128Z,7.97
2022-10-03T22:01:10.972Z,7.94
2022-10-03T22:03:45.065Z,7.96
2022-10-03T22:06:19.009Z,7.96
2022-10-03T22:08:49.231Z,7.85
2022-10-03T22:11:29.847Z,7.81
2022-10-03T22:14:09.549Z,7.64
2022-10-03T22:16:45.039Z,7.68
2022-10-03T22:19:26.116Z,7.67
2022-10-03T22:22:05.792Z,7.71
2022-10-03T22:24:44.677Z,7.57
2022-10-03T22:27:19.963Z,7.58
2022-10-03T22:30:00.840Z,7.43
2022-10-03T22:32:34.580Z,7.59
2022-10-03T22:35:15.717Z,7.57
2022-10-03T22:37:42.719Z,7.35
2022-10-03T22:40:09.740Z,7.31
2022-10-03T22:42:42.520Z,7.37
2022-10-03T22:45:10.951Z,7.40
2022-10-03T22:47:38.914Z,6.86
2022-10-03T22:50:10.529Z,7.26
2022-10-03T22:52:41.820Z,7.32
2022-10-03T22:55:12.997Z,7.16
2022-10-03T22:57:42.730Z,7.25
2022-10-03T23:00:12.659Z,7.21
2022-10-03T23:02:46.948Z,7.07
2022-10-03T23:05:20.311Z,7.13
2022-10-03T23:07:59.793Z,7.18
2022-10-03T23:10:42.563Z,7.06
2022-10-03T23:13:17.000Z,7.07
2022-10-03T23:15:48.755Z,7.07
2022-10-03T23:18:31.813Z,6.80
2022-10-03T23:21:09.226Z,6.85
2022-10-03T23:23:52.481Z,6.99
2022-10-03T23:27:06.533Z,6.98
2022-10-03T23:29:34.478Z,6.99
2022-10-03T23:32:02.518Z,6.97
2022-10-03T23:35:10.666Z,6.99
2022-10-03T23:37:45.774Z,7.00
2022-10-03T23:40:20.090Z,6.92
2022-10-03T23:42:58.818Z,6.74
2022-10-03T23:45:29.630Z,6.82
2022-10-03T23:48:01.480Z,6.66
2022-10-03T23:50:37.459Z,6.76
2022-10-03T23:53:04.638Z,6.58
2022-10-03T23:55:34.755Z,6.55
2022-10-03T23:58:02.186Z,6.73
